sensor_id;sensor_type;location;lat;lon;timestamp;P1;durP1;ratioP1;P2;durP2;ratioP2
9720;SDS011;4899;42.644;23.366;2023-04-24T00:00:31;8.63;;;5.70;;
9720;SDS011;4899;42.644;23.366;2023-04-24T00:02:56;6.50;;;4.77;;
9720;SDS011;4899;42.644;23.366;2023-04-24T00:05:22;5.23;;;4.73;;
9720;SDS011;4899;42.644;23.366;2023-04-24T00:07:49;5.10;;;4.70;;
9720;SDS011;4899;42.644;23.366;2023-04-24T00:10:17;6.47;;;5.83;;
9720;SDS011;4899;42.644;23.366;2023-04-24T00:12:43;6.40;;;5.80;;
9720;SDS011;4899;42.644;23.366;2023-04-24T00:15:09;8.20;;;5.30;;
9720;SDS011;4899;42.644;23.366;2023-04-24T00:17:35;6.60;;;6.00;;
9720;SDS011;4899;42.644;23.366;2023-04-24T00:20:01;7.50;;;5.43;;
9720;SDS011;4899;42.644;23.366;2023-04-24T00:22:29;6.60;;;5.60;;
9720;SDS011;4899;42.644;23.366;2023-04-24T00:24:55;6.17;;;5.47;;
9720;SDS011;4899;42.644;23.366;2023-04-24T00:27:21;6.47;;;5.27;;
9720;SDS011;4899;42.644;23.366;2023-04-24T00:29:47;6.73;;;5.97;;
9720;SDS011;4899;42.644;23.366;2023-04-24T00:32:13;5.80;;;5.30;;
9720;SDS011;4899;42.644;23.366;2023-04-24T00:34:39;8.63;;;5.83;;
9720;SDS011;4899;42.644;23.366;2023-04-24T00:37:05;7.00;;;5.80;;
9720;SDS011;4899;42.644;23.366;2023-04-24T00:39:31;8.57;;;5.50;;
9720;SDS011;4899;42.644;23.366;2023-04-24T00:41:57;7.23;;;5.37;;
9720;SDS011;4899;42.644;23.366;2023-04-24T00:44:22;5.93;;;5.30;;
9720;SDS011;4899;42.644;23.366;2023-04-24T00:46:48;10.43;;;7.73;;
9720;SDS011;4899;42.644;23.366;2023-04-24T00:49:19;7.33;;;6.63;;
9720;SDS011;4899;42.644;23.366;2023-04-24T00:51:48;8.53;;;6.43;;
9720;SDS011;4899;42.644;23.366;2023-04-24T00:54:14;7.73;;;6.93;;
9720;SDS011;4899;42.644;23.366;2023-04-24T00:56:40;10.10;;;5.80;;
9720;SDS011;4899;42.644;23.366;2023-04-24T00:59:08;7.13;;;5.93;;
9720;SDS011;4899;42.644;23.366;2023-04-24T01:01:34;7.97;;;5.83;;
9720;SDS011;4899;42.644;23.366;2023-04-24T01:04:00;7.53;;;6.03;;
9720;SDS011;4899;42.644;23.366;2023-04-24T01:06:27;7.30;;;6.20;;
9720;SDS011;4899;42.644;23.366;2023-04-24T01:08:53;12.80;;;7.30;;
9720;SDS011;4899;42.644;23.366;2023-04-24T01:11:20;6.83;;;6.23;;
9720;SDS011;4899;42.644;23.366;2023-04-24T01:13:47;7.23;;;6.53;;
9720;SDS011;4899;42.644;23.366;2023-04-24T01:16:13;8.33;;;6.53;;
9720;SDS011;4899;42.644;23.366;2023-04-24T01:18:39;7.17;;;6.47;;
9720;SDS011;4899;42.644;23.366;2023-04-24T01:21:06;7.37;;;6.00;;
9720;SDS011;4899;42.644;23.366;2023-04-24T01:23:33;10.27;;;5.97;;
9720;SDS011;4899;42.644;23.366;2023-04-24T01:25:59;6.90;;;6.03;;
9720;SDS011;4899;42.644;23.366;2023-04-24T01:28:25;7.23;;;6.00;;
9720;SDS011;4899;42.644;23.366;2023-04-24T01:30:51;7.57;;;6.73;;
9720;SDS011;4899;42.644;23.366;2023-04-24T01:33:17;8.77;;;6.60;;
9720;SDS011;4899;42.644;23.366;2023-04-24T01:35:43;7.30;;;6.23;;
9720;SDS011;4899;42.644;23.366;2023-04-24T01:38:09;6.70;;;6.10;;
9720;SDS011;4899;42.644;23.366;2023-04-24T01:40:34;8.07;;;6.77;;
9720;SDS011;4899;42.644;23.366;2023-04-24T01:43:00;8.27;;;7.13;;
9720;SDS011;4899;42.644;23.366;2023-04-24T01:45:25;10.13;;;8.40;;
9720;SDS011;4899;42.644;23.366;2023-04-24T01:47:51;11.60;;;7.43;;
9720;SDS011;4899;42.644;23.366;2023-04-24T01:50:17;8.00;;;6.67;;
9720;SDS011;4899;42.644;23.366;2023-04-24T01:52:43;7.93;;;7.13;;
9720;SDS011;4899;42.644;23.366;2023-04-24T01:55:09;12.47;;;7.70;;
9720;SDS011;4899;42.644;23.366;2023-04-24T01:57:35;7.90;;;7.10;;
9720;SDS011;4899;42.644;23.366;2023-04-24T02:00:01;9.17;;;7.33;;
9720;SDS011;4899;42.644;23.366;2023-04-24T02:02:29;9.67;;;8.47;;
9720;SDS011;4899;42.644;23.366;2023-04-24T02:04:55;8.27;;;7.57;;
9720;SDS011;4899;42.644;23.366;2023-04-24T02:07:20;12.13;;;8.23;;
9720;SDS011;4899;42.644;23.366;2023-04-24T02:09:46;10.43;;;8.27;;
9720;SDS011;4899;42.644;23.366;2023-04-24T02:12:12;11.90;;;8.50;;
9720;SDS011;4899;42.644;23.366;2023-04-24T02:14:37;8.57;;;7.77;;
9720;SDS011;4899;42.644;23.366;2023-04-24T02:17:03;11.57;;;8.40;;
9720;SDS011;4899;42.644;23.366;2023-04-24T02:19:30;9.00;;;8.17;;
9720;SDS011;4899;42.644;23.366;2023-04-24T02:21:55;10.90;;;7.67;;
9720;SDS011;4899;42.644;23.366;2023-04-24T02:24:21;8.77;;;7.93;;
9720;SDS011;4899;42.644;23.366;2023-04-24T02:26:46;12.80;;;9.00;;
9720;SDS011;4899;42.644;23.366;2023-04-24T02:29:12;9.80;;;8.80;;
9720;SDS011;4899;42.644;23.366;2023-04-24T02:31:37;11.20;;;8.57;;
9720;SDS011;4899;42.644;23.366;2023-04-24T02:34:02;10.93;;;8.63;;
9720;SDS011;4899;42.644;23.366;2023-04-24T02:36:28;10.00;;;7.60;;
9720;SDS011;4899;42.644;23.366;2023-04-24T02:38:54;9.37;;;7.37;;
9720;SDS011;4899;42.644;23.366;2023-04-24T02:41:20;8.37;;;7.67;;
9720;SDS011;4899;42.644;23.366;2023-04-24T02:43:45;7.90;;;7.17;;
9720;SDS011;4899;42.644;23.366;2023-04-24T02:46:10;9.40;;;7.03;;
9720;SDS011;4899;42.644;23.366;2023-04-24T02:48:36;8.13;;;7.33;;
9720;SDS011;4899;42.644;23.366;2023-04-24T02:51:01;7.50;;;6.43;;
9720;SDS011;4899;42.644;23.366;2023-04-24T02:53:27;9.93;;;6.27;;
9720;SDS011;4899;42.644;23.366;2023-04-24T02:55:53;8.77;;;6.70;;
9720;SDS011;4899;42.644;23.366;2023-04-24T02:58:19;9.07;;;7.13;;
9720;SDS011;4899;42.644;23.366;2023-04-24T03:00:45;9.30;;;6.13;;
9720;SDS011;4899;42.644;23.366;2023-04-24T03:03:11;8.87;;;7.20;;
9720;SDS011;4899;42.644;23.366;2023-04-24T03:05:36;13.00;;;8.10;;
9720;SDS011;4899;42.644;23.366;2023-04-24T03:08:02;10.93;;;8.97;;
9720;SDS011;4899;42.644;23.366;2023-04-24T03:10:27;8.77;;;7.80;;
9720;SDS011;4899;42.644;23.366;2023-04-24T03:12:55;14.37;;;8.67;;
9720;SDS011;4899;42.644;23.366;2023-04-24T03:15:21;10.23;;;8.00;;
9720;SDS011;4899;42.644;23.366;2023-04-24T03:17:46;10.10;;;8.80;;
9720;SDS011;4899;42.644;23.366;2023-04-24T03:20:12;12.90;;;9.23;;
9720;SDS011;4899;42.644;23.366;2023-04-24T03:25:22;9.07;;;7.67;;
9720;SDS011;4899;42.644;23.366;2023-04-24T03:27:47;9.63;;;7.87;;
9720;SDS011;4899;42.644;23.366;2023-04-24T03:30:12;8.70;;;7.87;;
9720;SDS011;4899;42.644;23.366;2023-04-24T03:32:38;10.83;;;9.70;;
9720;SDS011;4899;42.644;23.366;2023-04-24T03:35:05;10.70;;;7.90;;
9720;SDS011;4899;42.644;23.366;2023-04-24T03:37:32;9.70;;;8.67;;
9720;SDS011;4899;42.644;23.366;2023-04-24T03:39:58;11.47;;;8.77;;
9720;SDS011;4899;42.644;23.366;2023-04-24T03:42:23;9.60;;;8.60;;
9720;SDS011;4899;42.644;23.366;2023-04-24T03:44:48;13.37;;;9.63;;
9720;SDS011;4899;42.644;23.366;2023-04-24T03:47:14;13.43;;;10.03;;
9720;SDS011;4899;42.644;23.366;2023-04-24T03:49:40;11.17;;;9.90;;
9720;SDS011;4899;42.644;23.366;2023-04-24T03:52:11;11.80;;;10.60;;
9720;SDS011;4899;42.644;23.366;2023-04-24T03:54:36;12.40;;;11.13;;
9720;SDS011;4899;42.644;23.366;2023-04-24T03:57:02;12.23;;;10.93;;
9720;SDS011;4899;42.644;23.366;2023-04-24T03:59:29;12.17;;;10.73;;
9720;SDS011;4899;42.644;23.366;2023-04-24T04:01:55;14.33;;;10.70;;
9720;SDS011;4899;42.644;23.366;2023-04-24T04:04:20;13.10;;;11.83;;
9720;SDS011;4899;42.644;23.366;2023-04-24T04:06:47;13.83;;;11.30;;
9720;SDS011;4899;42.644;23.366;2023-04-24T04:09:12;13.00;;;10.80;;
9720;SDS011;4899;42.644;23.366;2023-04-24T04:11:38;11.37;;;10.20;;
9720;SDS011;4899;42.644;23.366;2023-04-24T04:14:03;11.97;;;10.90;;
9720;SDS011;4899;42.644;23.366;2023-04-24T04:16:29;12.83;;;10.87;;
9720;SDS011;4899;42.644;23.366;2023-04-24T04:18:55;13.77;;;10.77;;
9720;SDS011;4899;42.644;23.366;2023-04-24T04:21:20;11.83;;;10.60;;
9720;SDS011;4899;42.644;23.366;2023-04-24T04:23:46;11.73;;;10.57;;
9720;SDS011;4899;42.644;23.366;2023-04-24T04:26:11;10.90;;;9.80;;
9720;SDS011;4899;42.644;23.366;2023-04-24T04:28:37;13.77;;;10.30;;
9720;SDS011;4899;42.644;23.366;2023-04-24T04:31:04;11.67;;;10.47;;
9720;SDS011;4899;42.644;23.366;2023-04-24T04:33:29;16.90;;;10.37;;
9720;SDS011;4899;42.644;23.366;2023-04-24T04:35:56;15.20;;;9.93;;
9720;SDS011;4899;42.644;23.366;2023-04-24T04:38:21;11.07;;;10.07;;
9720;SDS011;4899;42.644;23.366;2023-04-24T04:40:47;12.50;;;10.73;;
9720;SDS011;4899;42.644;23.366;2023-04-24T04:43:13;10.93;;;9.80;;
9720;SDS011;4899;42.644;23.366;2023-04-24T04:45:39;11.77;;;10.60;;
9720;SDS011;4899;42.644;23.366;2023-04-24T04:48:06;11.10;;;9.80;;
9720;SDS011;4899;42.644;23.366;2023-04-24T04:50:37;12.80;;;10.60;;
9720;SDS011;4899;42.644;23.366;2023-04-24T04:53:03;13.63;;;10.33;;
9720;SDS011;4899;42.644;23.366;2023-04-24T04:55:28;13.13;;;10.80;;
9720;SDS011;4899;42.644;23.366;2023-04-24T04:57:53;12.03;;;10.83;;
9720;SDS011;4899;42.644;23.366;2023-04-24T05:00:21;13.57;;;10.20;;
9720;SDS011;4899;42.644;23.366;2023-04-24T05:02:46;11.43;;;10.30;;
9720;SDS011;4899;42.644;23.366;2023-04-24T05:05:12;11.00;;;9.20;;
9720;SDS011;4899;42.644;23.366;2023-04-24T05:07:37;11.47;;;9.00;;
9720;SDS011;4899;42.644;23.366;2023-04-24T05:10:03;10.87;;;9.60;;
9720;SDS011;4899;42.644;23.366;2023-04-24T05:12:29;14.77;;;9.27;;
9720;SDS011;4899;42.644;23.366;2023-04-24T05:14:54;10.27;;;8.97;;
9720;SDS011;4899;42.644;23.366;2023-04-24T05:17:20;10.53;;;9.10;;
9720;SDS011;4899;42.644;23.366;2023-04-24T05:19:45;10.80;;;9.17;;
9720;SDS011;4899;42.644;23.366;2023-04-24T05:22:11;12.30;;;8.50;;
9720;SDS011;4899;42.644;23.366;2023-04-24T05:24:37;10.80;;;7.40;;
9720;SDS011;4899;42.644;23.366;2023-04-24T05:27:02;9.50;;;7.53;;
9720;SDS011;4899;42.644;23.366;2023-04-24T05:29:29;14.77;;;7.60;;
9720;SDS011;4899;42.644;23.366;2023-04-24T05:31:56;12.57;;;7.27;;
9720;SDS011;4899;42.644;23.366;2023-04-24T05:34:21;7.83;;;7.00;;
9720;SDS011;4899;42.644;23.366;2023-04-24T05:36:47;9.10;;;6.40;;
9720;SDS011;4899;42.644;23.366;2023-04-24T05:39:13;7.33;;;6.03;;
9720;SDS011;4899;42.644;23.366;2023-04-24T05:41:38;7.23;;;6.00;;
9720;SDS011;4899;42.644;23.366;2023-04-24T05:44:04;8.00;;;6.30;;
9720;SDS011;4899;42.644;23.366;2023-04-24T05:46:29;7.97;;;7.07;;
9720;SDS011;4899;42.644;23.366;2023-04-24T05:48:55;10.80;;;7.07;;
9720;SDS011;4899;42.644;23.366;2023-04-24T05:51:21;8.10;;;7.03;;
9720;SDS011;4899;42.644;23.366;2023-04-24T05:53:46;11.40;;;6.90;;
9720;SDS011;4899;42.644;23.366;2023-04-24T05:56:12;8.83;;;7.10;;
9720;SDS011;4899;42.644;23.366;2023-04-24T05:58:37;11.10;;;6.90;;
9720;SDS011;4899;42.644;23.366;2023-04-24T06:01:03;8.97;;;7.40;;
9720;SDS011;4899;42.644;23.366;2023-04-24T06:03:28;12.50;;;7.87;;
9720;SDS011;4899;42.644;23.366;2023-04-24T06:05:54;11.50;;;7.40;;
9720;SDS011;4899;42.644;23.366;2023-04-24T06:08:19;8.27;;;6.93;;
9720;SDS011;4899;42.644;23.366;2023-04-24T06:10:45;8.47;;;6.87;;
9720;SDS011;4899;42.644;23.366;2023-04-24T06:13:10;9.20;;;6.90;;
9720;SDS011;4899;42.644;23.366;2023-04-24T06:15:36;9.63;;;6.87;;
9720;SDS011;4899;42.644;23.366;2023-04-24T06:18:02;9.57;;;8.00;;
9720;SDS011;4899;42.644;23.366;2023-04-24T06:20:28;7.70;;;6.87;;
9720;SDS011;4899;42.644;23.366;2023-04-24T06:22:53;8.73;;;7.73;;
9720;SDS011;4899;42.644;23.366;2023-04-24T06:25:19;13.27;;;6.83;;
9720;SDS011;4899;42.644;23.366;2023-04-24T06:27:44;8.00;;;6.77;;
9720;SDS011;4899;42.644;23.366;2023-04-24T06:30:10;9.50;;;7.23;;
9720;SDS011;4899;42.644;23.366;2023-04-24T06:32:36;9.50;;;7.70;;
9720;SDS011;4899;42.644;23.366;2023-04-24T06:35:01;9.57;;;7.23;;
9720;SDS011;4899;42.644;23.366;2023-04-24T06:37:31;9.40;;;7.60;;
9720;SDS011;4899;42.644;23.366;2023-04-24T06:39:57;11.60;;;7.57;;
9720;SDS011;4899;42.644;23.366;2023-04-24T06:42:23;9.20;;;7.40;;
9720;SDS011;4899;42.644;23.366;2023-04-24T06:44:49;9.53;;;7.97;;
9720;SDS011;4899;42.644;23.366;2023-04-24T06:47:15;9.90;;;7.37;;
9720;SDS011;4899;42.644;23.366;2023-04-24T06:49:41;8.90;;;7.97;;
9720;SDS011;4899;42.644;23.366;2023-04-24T06:52:06;10.80;;;7.80;;
9720;SDS011;4899;42.644;23.366;2023-04-24T06:54:32;9.67;;;7.77;;
9720;SDS011;4899;42.644;23.366;2023-04-24T06:56:58;9.63;;;8.40;;
9720;SDS011;4899;42.644;23.366;2023-04-24T06:59:26;9.37;;;8.37;;
9720;SDS011;4899;42.644;23.366;2023-04-24T07:01:52;14.07;;;9.20;;
9720;SDS011;4899;42.644;23.366;2023-04-24T07:04:17;11.60;;;8.93;;
9720;SDS011;4899;42.644;23.366;2023-04-24T07:06:44;10.63;;;9.10;;
9720;SDS011;4899;42.644;23.366;2023-04-24T07:09:11;11.67;;;8.87;;
9720;SDS011;4899;42.644;23.366;2023-04-24T07:11:37;11.60;;;9.30;;
9720;SDS011;4899;42.644;23.366;2023-04-24T07:14:04;10.87;;;8.37;;
9720;SDS011;4899;42.644;23.366;2023-04-24T07:16:29;9.87;;;7.77;;
9720;SDS011;4899;42.644;23.366;2023-04-24T07:18:55;9.27;;;8.33;;
9720;SDS011;4899;42.644;23.366;2023-04-24T07:21:20;10.23;;;8.93;;
9720;SDS011;4899;42.644;23.366;2023-04-24T07:23:46;10.83;;;8.10;;
9720;SDS011;4899;42.644;23.366;2023-04-24T07:26:11;12.83;;;8.97;;
9720;SDS011;4899;42.644;23.366;2023-04-24T07:28:37;8.60;;;7.80;;
9720;SDS011;4899;42.644;23.366;2023-04-24T07:31:02;13.50;;;7.70;;
9720;SDS011;4899;42.644;23.366;2023-04-24T07:33:28;13.00;;;9.20;;
9720;SDS011;4899;42.644;23.366;2023-04-24T07:35:53;11.90;;;10.17;;
9720;SDS011;4899;42.644;23.366;2023-04-24T07:38:19;8.57;;;7.77;;
9720;SDS011;4899;42.644;23.366;2023-04-24T07:40:48;9.00;;;7.43;;
9720;SDS011;4899;42.644;23.366;2023-04-24T07:43:13;8.90;;;7.70;;
9720;SDS011;4899;42.644;23.366;2023-04-24T07:45:39;11.07;;;7.47;;
9720;SDS011;4899;42.644;23.366;2023-04-24T07:48:05;8.30;;;7.50;;
9720;SDS011;4899;42.644;23.366;2023-04-24T07:50:31;10.43;;;7.57;;
9720;SDS011;4899;42.644;23.366;2023-04-24T07:52:57;8.60;;;7.03;;
9720;SDS011;4899;42.644;23.366;2023-04-24T07:55:22;11.23;;;7.90;;
9720;SDS011;4899;42.644;23.366;2023-04-24T07:57:48;8.53;;;7.67;;
9720;SDS011;4899;42.644;23.366;2023-04-24T08:00:13;10.37;;;7.80;;
9720;SDS011;4899;42.644;23.366;2023-04-24T08:02:39;10.43;;;7.33;;
9720;SDS011;4899;42.644;23.366;2023-04-24T08:05:05;9.77;;;6.87;;
9720;SDS011;4899;42.644;23.366;2023-04-24T08:07:31;8.97;;;6.73;;
9720;SDS011;4899;42.644;23.366;2023-04-24T08:09:56;9.33;;;6.50;;
9720;SDS011;4899;42.644;23.366;2023-04-24T08:12:22;9.33;;;6.33;;
9720;SDS011;4899;42.644;23.366;2023-04-24T08:14:47;7.13;;;6.47;;
9720;SDS011;4899;42.644;23.366;2023-04-24T08:17:13;8.77;;;6.60;;
9720;SDS011;4899;42.644;23.366;2023-04-24T08:19:39;11.30;;;6.83;;
9720;SDS011;4899;42.644;23.366;2023-04-24T08:22:12;9.27;;;6.40;;
9720;SDS011;4899;42.644;23.366;2023-04-24T08:24:37;10.30;;;7.20;;
9720;SDS011;4899;42.644;23.366;2023-04-24T08:27:03;10.87;;;7.60;;
9720;SDS011;4899;42.644;23.366;2023-04-24T08:29:28;10.70;;;6.80;;
9720;SDS011;4899;42.644;23.366;2023-04-24T08:31:54;12.07;;;6.70;;
9720;SDS011;4899;42.644;23.366;2023-04-24T08:34:20;8.70;;;6.70;;
9720;SDS011;4899;42.644;23.366;2023-04-24T08:36:46;6.27;;;5.63;;
9720;SDS011;4899;42.644;23.366;2023-04-24T08:39:12;6.67;;;6.03;;
9720;SDS011;4899;42.644;23.366;2023-04-24T08:41:37;7.47;;;6.43;;
9720;SDS011;4899;42.644;23.366;2023-04-24T08:44:03;6.83;;;6.00;;
9720;SDS011;4899;42.644;23.366;2023-04-24T08:46:29;8.33;;;6.33;;
9720;SDS011;4899;42.644;23.366;2023-04-24T08:48:55;9.27;;;6.70;;
9720;SDS011;4899;42.644;23.366;2023-04-24T08:51:21;6.00;;;5.47;;
9720;SDS011;4899;42.644;23.366;2023-04-24T08:53:51;8.10;;;5.93;;
9720;SDS011;4899;42.644;23.366;2023-04-24T08:56:19;6.20;;;5.70;;
9720;SDS011;4899;42.644;23.366;2023-04-24T08:58:48;9.93;;;6.30;;
9720;SDS011;4899;42.644;23.366;2023-04-24T09:01:16;8.47;;;5.87;;
9720;SDS011;4899;42.644;23.366;2023-04-24T09:03:43;8.93;;;6.30;;
9720;SDS011;4899;42.644;23.366;2023-04-24T09:06:09;7.73;;;6.00;;
9720;SDS011;4899;42.644;23.366;2023-04-24T09:08:36;10.87;;;5.40;;
9720;SDS011;4899;42.644;23.366;2023-04-24T09:11:04;6.23;;;5.53;;
9720;SDS011;4899;42.644;23.366;2023-04-24T09:13:30;7.00;;;6.30;;
9720;SDS011;4899;42.644;23.366;2023-04-24T09:15:56;8.53;;;7.13;;
9720;SDS011;4899;42.644;23.366;2023-04-24T09:18:22;5.87;;;5.37;;
9720;SDS011;4899;42.644;23.366;2023-04-24T09:21:01;6.33;;;5.50;;
9720;SDS011;4899;42.644;23.366;2023-04-24T09:23:29;8.57;;;5.53;;
9720;SDS011;4899;42.644;23.366;2023-04-24T09:25:56;6.90;;;6.20;;
9720;SDS011;4899;42.644;23.366;2023-04-24T09:28:27;8.43;;;6.00;;
9720;SDS011;4899;42.644;23.366;2023-04-24T09:31:28;5.53;;;5.00;;
9720;SDS011;4899;42.644;23.366;2023-04-24T09:34:01;5.90;;;5.10;;
9720;SDS011;4899;42.644;23.366;2023-04-24T09:36:32;5.17;;;4.70;;
9720;SDS011;4899;42.644;23.366;2023-04-24T09:38:59;6.63;;;4.73;;
9720;SDS011;4899;42.644;23.366;2023-04-24T09:41:26;6.17;;;4.57;;
9720;SDS011;4899;42.644;23.366;2023-04-24T09:43:55;8.07;;;6.00;;
9720;SDS011;4899;42.644;23.366;2023-04-24T09:46:28;5.27;;;4.83;;
9720;SDS011;4899;42.644;23.366;2023-04-24T09:48:54;5.33;;;4.83;;
9720;SDS011;4899;42.644;23.366;2023-04-24T09:51:24;7.90;;;4.93;;
9720;SDS011;4899;42.644;23.366;2023-04-24T09:53:59;6.33;;;5.60;;
9720;SDS011;4899;42.644;23.366;2023-04-24T09:56:24;7.47;;;4.60;;
9720;SDS011;4899;42.644;23.366;2023-04-24T09:58:51;6.97;;;4.67;;
9720;SDS011;4899;42.644;23.366;2023-04-24T10:01:16;6.53;;;4.67;;
9720;SDS011;4899;42.644;23.366;2023-04-24T10:03:55;7.10;;;4.70;;
9720;SDS011;4899;42.644;23.366;2023-04-24T10:06:20;5.20;;;4.70;;
9720;SDS011;4899;42.644;23.366;2023-04-24T10:08:46;4.73;;;4.27;;
9720;SDS011;4899;42.644;23.366;2023-04-24T10:11:13;5.47;;;5.00;;
9720;SDS011;4899;42.644;23.366;2023-04-24T10:13:39;5.60;;;4.60;;
9720;SDS011;4899;42.644;23.366;2023-04-24T10:16:06;5.40;;;4.43;;
9720;SDS011;4899;42.644;23.366;2023-04-24T10:18:32;4.87;;;4.20;;
9720;SDS011;4899;42.644;23.366;2023-04-24T10:20:59;5.50;;;4.20;;
9720;SDS011;4899;42.644;23.366;2023-04-24T10:23:25;6.20;;;5.10;;
9720;SDS011;4899;42.644;23.366;2023-04-24T10:25:50;5.93;;;4.40;;
9720;SDS011;4899;42.644;23.366;2023-04-24T10:28:17;4.70;;;4.30;;
9720;SDS011;4899;42.644;23.366;2023-04-24T10:30:44;5.07;;;4.60;;
9720;SDS011;4899;42.644;23.366;2023-04-24T10:33:11;4.90;;;4.37;;
9720;SDS011;4899;42.644;23.366;2023-04-24T10:35:40;5.50;;;4.93;;
9720;SDS011;4899;42.644;23.366;2023-04-24T10:38:11;5.83;;;4.17;;
9720;SDS011;4899;42.644;23.366;2023-04-24T10:40:38;4.93;;;4.43;;
9720;SDS011;4899;42.644;23.366;2023-04-24T10:43:04;7.03;;;4.77;;
9720;SDS011;4899;42.644;23.366;2023-04-24T10:45:32;6.30;;;3.77;;
9720;SDS011;4899;42.644;23.366;2023-04-24T10:47:59;5.80;;;4.90;;
9720;SDS011;4899;42.644;23.366;2023-04-24T10:50:28;7.67;;;4.60;;
9720;SDS011;4899;42.644;23.366;2023-04-24T10:53:04;6.73;;;4.57;;
9720;SDS011;4899;42.644;23.366;2023-04-24T10:55:41;5.77;;;4.20;;
9720;SDS011;4899;42.644;23.366;2023-04-24T10:58:07;6.03;;;3.90;;
9720;SDS011;4899;42.644;23.366;2023-04-24T11:00:33;4.83;;;4.37;;
9720;SDS011;4899;42.644;23.366;2023-04-24T11:03:04;4.43;;;3.97;;
9720;SDS011;4899;42.644;23.366;2023-04-24T11:08:23;4.50;;;3.70;;
9720;SDS011;4899;42.644;23.366;2023-04-24T11:13:24;5.53;;;3.80;;
9720;SDS011;4899;42.644;23.366;2023-04-24T11:19:07;4.63;;;4.27;;
9720;SDS011;4899;42.644;23.366;2023-04-24T11:29:41;8.43;;;6.90;;
9720;SDS011;4899;42.644;23.366;2023-04-24T11:32:29;3.87;;;3.50;;
9720;SDS011;4899;42.644;23.366;2023-04-24T11:34:56;3.53;;;3.07;;
9720;SDS011;4899;42.644;23.366;2023-04-24T11:37:24;6.37;;;3.37;;
9720;SDS011;4899;42.644;23.366;2023-04-24T11:39:55;4.63;;;3.90;;
9720;SDS011;4899;42.644;23.366;2023-04-24T11:42:22;4.30;;;3.17;;
9720;SDS011;4899;42.644;23.366;2023-04-24T11:44:49;2.87;;;2.67;;
9720;SDS011;4899;42.644;23.366;2023-04-24T11:47:16;3.37;;;3.07;;
9720;SDS011;4899;42.644;23.366;2023-04-24T11:49:42;3.83;;;3.53;;
9720;SDS011;4899;42.644;23.366;2023-04-24T11:52:08;3.37;;;3.10;;
9720;SDS011;4899;42.644;23.366;2023-04-24T11:54:34;3.90;;;3.60;;
9720;SDS011;4899;42.644;23.366;2023-04-24T11:56:59;3.87;;;3.57;;
9720;SDS011;4899;42.644;23.366;2023-04-24T11:59:29;3.63;;;3.40;;
9720;SDS011;4899;42.644;23.366;2023-04-24T12:01:57;4.20;;;3.80;;
9720;SDS011;4899;42.644;23.366;2023-04-24T12:04:22;3.10;;;2.87;;
9720;SDS011;4899;42.644;23.366;2023-04-24T12:07:03;3.73;;;3.50;;
9720;SDS011;4899;42.644;23.366;2023-04-24T12:12:12;4.03;;;3.73;;
9720;SDS011;4899;42.644;23.366;2023-04-24T12:14:44;3.83;;;3.57;;
9720;SDS011;4899;42.644;23.366;2023-04-24T12:17:15;4.30;;;3.37;;
9720;SDS011;4899;42.644;23.366;2023-04-24T12:19:48;6.70;;;3.40;;
9720;SDS011;4899;42.644;23.366;2023-04-24T12:22:15;3.60;;;3.37;;
9720;SDS011;4899;42.644;23.366;2023-04-24T12:25:01;4.03;;;3.73;;
9720;SDS011;4899;42.644;23.366;2023-04-24T12:27:31;3.83;;;3.50;;
9720;SDS011;4899;42.644;23.366;2023-04-24T12:30:00;3.70;;;3.40;;
9720;SDS011;4899;42.644;23.366;2023-04-24T12:32:28;2.93;;;2.73;;
9720;SDS011;4899;42.644;23.366;2023-04-24T12:34:53;2.87;;;2.60;;
9720;SDS011;4899;42.644;23.366;2023-04-24T12:37:20;3.67;;;3.13;;
9720;SDS011;4899;42.644;23.366;2023-04-24T12:42:31;5.93;;;3.50;;
9720;SDS011;4899;42.644;23.366;2023-04-24T12:44:57;4.17;;;3.20;;
9720;SDS011;4899;42.644;23.366;2023-04-24T12:47:24;3.47;;;3.17;;
9720;SDS011;4899;42.644;23.366;2023-04-24T12:49:50;3.90;;;3.57;;
9720;SDS011;4899;42.644;23.366;2023-04-24T12:52:17;3.87;;;3.40;;
9720;SDS011;4899;42.644;23.366;2023-04-24T12:54:46;7.13;;;6.53;;
9720;SDS011;4899;42.644;23.366;2023-04-24T12:57:12;4.20;;;3.80;;
9720;SDS011;4899;42.644;23.366;2023-04-24T12:59:37;4.73;;;4.33;;
9720;SDS011;4899;42.644;23.366;2023-04-24T13:02:04;4.63;;;4.10;;
9720;SDS011;4899;42.644;23.366;2023-04-24T13:04:29;5.40;;;4.97;;
9720;SDS011;4899;42.644;23.366;2023-04-24T13:06:55;7.03;;;4.87;;
9720;SDS011;4899;42.644;23.366;2023-04-24T13:09:20;5.77;;;4.47;;
9720;SDS011;4899;42.644;23.366;2023-04-24T13:11:46;3.70;;;3.40;;
9720;SDS011;4899;42.644;23.366;2023-04-24T13:14:12;4.50;;;3.97;;
9720;SDS011;4899;42.644;23.366;2023-04-24T13:16:37;5.87;;;5.37;;
9720;SDS011;4899;42.644;23.366;2023-04-24T13:19:03;6.03;;;5.10;;
9720;SDS011;4899;42.644;23.366;2023-04-24T13:21:30;4.30;;;3.90;;
9720;SDS011;4899;42.644;23.366;2023-04-24T13:23:55;3.70;;;3.40;;
9720;SDS011;4899;42.644;23.366;2023-04-24T13:26:21;3.90;;;3.33;;
9720;SDS011;4899;42.644;23.366;2023-04-24T13:28:46;5.80;;;3.53;;
9720;SDS011;4899;42.644;23.366;2023-04-24T13:31:12;5.90;;;4.13;;
9720;SDS011;4899;42.644;23.366;2023-04-24T13:33:38;5.77;;;3.73;;
9720;SDS011;4899;42.644;23.366;2023-04-24T13:36:05;4.77;;;3.50;;
9720;SDS011;4899;42.644;23.366;2023-04-24T13:38:30;3.93;;;3.60;;
9720;SDS011;4899;42.644;23.366;2023-04-24T13:40:56;3.67;;;3.30;;
9720;SDS011;4899;42.644;23.366;2023-04-24T13:43:22;3.33;;;3.13;;
9720;SDS011;4899;42.644;23.366;2023-04-24T13:45:47;3.63;;;3.33;;
9720;SDS011;4899;42.644;23.366;2023-04-24T13:48:13;3.40;;;3.10;;
9720;SDS011;4899;42.644;23.366;2023-04-24T13:50:40;4.68;;;3.67;;
9720;SDS011;4899;42.644;23.366;2023-04-24T13:53:06;3.92;;;3.60;;
9720;SDS011;4899;42.644;23.366;2023-04-24T13:55:32;3.78;;;3.20;;
9720;SDS011;4899;42.644;23.366;2023-04-24T13:57:57;4.78;;;3.53;;
9720;SDS011;4899;42.644;23.366;2023-04-24T14:00:23;3.03;;;2.83;;
9720;SDS011;4899;42.644;23.366;2023-04-24T14:02:48;6.95;;;4.43;;
9720;SDS011;4899;42.644;23.366;2023-04-24T14:05:14;4.20;;;3.42;;
9720;SDS011;4899;42.644;23.366;2023-04-24T14:07:40;4.03;;;3.63;;
9720;SDS011;4899;42.644;23.366;2023-04-24T14:10:06;5.60;;;3.70;;
9720;SDS011;4899;42.644;23.366;2023-04-24T14:12:33;3.97;;;2.90;;
9720;SDS011;4899;42.644;23.366;2023-04-24T14:14:59;6.35;;;3.83;;
9720;SDS011;4899;42.644;23.366;2023-04-24T14:17:25;3.55;;;3.25;;
9720;SDS011;4899;42.644;23.366;2023-04-24T14:19:50;5.40;;;3.20;;
9720;SDS011;4899;42.644;23.366;2023-04-24T14:22:17;6.93;;;3.13;;
9720;SDS011;4899;42.644;23.366;2023-04-24T14:24:42;3.50;;;3.30;;
9720;SDS011;4899;42.644;23.366;2023-04-24T14:27:08;4.07;;;3.67;;
9720;SDS011;4899;42.644;23.366;2023-04-24T14:29:33;3.40;;;2.47;;
9720;SDS011;4899;42.644;23.366;2023-04-24T14:31:59;2.33;;;2.22;;
9720;SDS011;4899;42.644;23.366;2023-04-24T14:34:24;2.75;;;2.50;;
9720;SDS011;4899;42.644;23.366;2023-04-24T14:36:50;4.30;;;3.17;;
9720;SDS011;4899;42.644;23.366;2023-04-24T14:39:15;9.65;;;8.55;;
9720;SDS011;4899;42.644;23.366;2023-04-24T14:41:41;5.88;;;4.28;;
9720;SDS011;4899;42.644;23.366;2023-04-24T14:44:06;3.15;;;2.85;;
9720;SDS011;4899;42.644;23.366;2023-04-24T14:46:31;2.78;;;2.55;;
9720;SDS011;4899;42.644;23.366;2023-04-24T14:48:57;6.60;;;3.65;;
9720;SDS011;4899;42.644;23.366;2023-04-24T14:51:23;3.58;;;3.10;;
9720;SDS011;4899;42.644;23.366;2023-04-24T14:53:50;3.47;;;3.20;;
9720;SDS011;4899;42.644;23.366;2023-04-24T14:56:16;4.35;;;3.30;;
9720;SDS011;4899;42.644;23.366;2023-04-24T14:58:42;4.80;;;3.47;;
9720;SDS011;4899;42.644;23.366;2023-04-24T15:01:07;3.80;;;3.57;;
9720;SDS011;4899;42.644;23.366;2023-04-24T15:03:34;4.10;;;3.27;;
9720;SDS011;4899;42.644;23.366;2023-04-24T15:05:59;5.83;;;3.80;;
9720;SDS011;4899;42.644;23.366;2023-04-24T15:08:26;6.43;;;4.00;;
9720;SDS011;4899;42.644;23.366;2023-04-24T15:10:51;4.50;;;4.10;;
9720;SDS011;4899;42.644;23.366;2023-04-24T15:13:17;4.37;;;4.07;;
9720;SDS011;4899;42.644;23.366;2023-04-24T15:15:42;7.17;;;4.47;;